createdAt,value
2022-10-04T00:02:28.165Z,101408.47
2022-10-04T00:05:03.198Z,101404.81
2022-10-04T00:07:35.327Z,101405.09
2022-10-04T00:10:08.818Z,101400.63
2022-10-04T00:12:39.877Z,101404.25
2022-10-04T00:15:20.043Z,101398.94
2022-10-04T00:18:01.943Z,101409.28
2022-10-04T00:20:57.860Z,101403.75
2022-10-04T00:23:41.792Z,101404.00
2022-10-04T00:26:15.992Z,101414.59
2022-10-04T00:28:45.784Z,101414.56
2022-10-04T00:31:19.645Z,101412.34
2022-10-04T00:33:51.292Z,101413.19
2022-10-04T00:36:46.966Z,101408.72
2022-10-04T00:39:26.080Z,101407.88
2022-10-04T00:42:02.644Z,101415.00
2022-10-04T00:44:38.077Z,101398.09
2022-10-04T00:47:19.929Z,101403.25
2022-10-04T00:49:54.385Z,101394.06
2022-10-04T00:52:26.305Z,101402.75
2022-10-04T00:54:59.011Z,101391.91
2022-10-04T00:57:32.151Z,101387.91
2022-10-04T01:00:03.983Z,101385.41
2022-10-04T01:02:39.150Z,101377.38
2022-10-04T01:05:11.872Z,101380.03
2022-10-04T01:07:43.464Z,101379.47
2022-10-04T01:10:16.026Z,101379.34
2022-10-04T01:12:50.314Z,101379.91
2022-10-04T01:15:28.449Z,101376.66
2022-10-04T01:18:11.203Z,101375.84
2022-10-04T01:20:49.340Z,101376.09
2022-10-04T01:23:33.970Z,101376.09
2022-10-04T01:26:02.675Z,101379.19
2022-10-04T01:28:30.375Z,101376.38
2022-10-04T01:30:58.187Z,101385.31
2022-10-04T01:33:26.244Z,101374.50
2022-10-04T01:35:54.006Z,101371.97
2022-10-04T01:38:21.770Z,101363.16
2022-10-04T01:40:56.458Z,101366.72
2022-10-04T01:43:30.122Z,101354.16
2022-10-04T01:46:02.273Z,101361.09
2022-10-04T01:48:37.599Z,101358.97
2022-10-04T01:51:14.171Z,101358.69
2022-10-04T01:53:48.609Z,101359.16
2022-10-04T01:56:21.491Z,101349.53
2022-10-04T01:58:52.309Z,101345.31
2022-10-04T02:01:27.761Z,101345.91
2022-10-04T02:04:00.902Z,101347.47
2022-10-04T02:06:30.002Z,101333.31
2022-10-04T02:08:59.211Z,101329.97
2022-10-04T02:11:31.213Z,101334.63
2022-10-04T02:13:59.426Z,101328.22
2022-10-04T02:16:27.898Z,101319.53
2022-10-04T02:18:56.473Z,101313.06
2022-10-04T02:21:25.040Z,101313.06
2022-10-04T02:23:53.418Z,101301.00
2022-10-04T02:26:21.412Z,101299.06
2022-10-04T02:28:50.772Z,101300.28
2022-10-04T02:31:40.747Z,101304.75
2022-10-04T02:34:09.256Z,101299.16
2022-10-04T02:36:39.503Z,101294.81
2022-10-04T02:39:14.142Z,101289.97
2022-10-04T02:41:45.592Z,101290.66
2022-10-04T02:44:18.799Z,101289.34
2022-10-04T02:46:51.683Z,101296.59
2022-10-04T02:49:27.545Z,101292.78
2022-10-04T02:52:02.297Z,101292.50
2022-10-04T02:54:37.101Z,101290.31
2022-10-04T02:57:05.827Z,101297.44
2022-10-04T02:59:35.618Z,101289.00
2022-10-04T03:02:03.895Z,101290.22
2022-10-04T03:04:34.688Z,101297.34
2022-10-04T03:07:06.072Z,101296.91
2022-10-04T03:09:37.058Z,101298.44
2022-10-04T03:12:06.058Z,101292.22
2022-10-04T03:14:35.430Z,101292.22
2022-10-04T03:17:04.907Z,101291.00
2022-10-04T03:19:34.384Z,101290.88
2022-10-04T03:22:05.615Z,101286.66
2022-10-04T03:24:36.255Z,101295.34
2022-10-04T03:27:07.523Z,101287.69
2022-10-04T03:29:40.882Z,101291.09
2022-10-04T03:32:09.865Z,101286.22
2022-10-04T03:34:39.714Z,101282.19
2022-10-04T03:37:10.471Z,101280.38
2022-10-04T03:39:42.359Z,101275.59
2022-10-04T03:42:14.662Z,101275.06
2022-10-04T03:44:45.812Z,101283.41
2022-10-04T03:47:17.118Z,101285.34
2022-10-04T03:49:50.635Z,101293.25
2022-10-04T03:52:23.076Z,101287.50
2022-10-04T03:54:53.577Z,101285.94
2022-10-04T03:57:21.503Z,101283.81
2022-10-04T03:59:51.023Z,101287.72
2022-10-04T04:02:27.119Z,101300.84
2022-10-04T04:05:04.940Z,101292.44
2022-10-04T04:07:39.562Z,101286.03
2022-10-04T04:10:19.335Z,101289.91
2022-10-04T04:12:55.018Z,101292.31
2022-10-04T04:15:28.577Z,101293.03
2022-10-04T04:17:56.753Z,101299.16
2022-10-04T04:20:27.228Z,101299.16
2022-10-04T04:23:12.743Z,101297.34
2022-10-04T04:25:43.400Z,101295.03
2022-10-04T04:28:25.735Z,101298.72
2022-10-04T04:30:59.156Z,101295.81
2022-10-04T04:33:33.897Z,101289.06
2022-10-04T04:36:06.991Z,101279.19
2022-10-04T04:38:36.475Z,101291.72
2022-10-04T04:41:11.305Z,101288.75
2022-10-04T04:43:44.561Z,101295.09
2022-10-04T04:46:27.530Z,101294.50
2022-10-04T04:49:01.835Z,101278.66
2022-10-04T04:51:31.448Z,101290.16
2022-10-04T04:54:01.914Z,101287.25
2022-10-04T04:56:31.492Z,101279.31
2022-10-04T04:59:03.938Z,101282.66
2022-10-04T05:01:36.224Z,101275.50
2022-10-04T05:04:06.694Z,101272.50
2022-10-04T05:06:36.389Z,101273.47
2022-10-04T05:09:05.315Z,101274.66
2022-10-04T05:11:35.588Z,101274.22
2022-10-04T05:14:06.832Z,101277.00
2022-10-04T05:16:41.069Z,101271.44
2022-10-04T05:19:16.198Z,101269.69
2022-10-04T05:21:47.700Z,101270.66
2022-10-04T05:24:23.259Z,101261.00
2022-10-04T05:26:52.952Z,101271.19
2022-10-04T05:29:23.935Z,101269.91
2022-10-04T05:32:03.381Z,101272.47
2022-10-04T05:34:36.966Z,101269.41
2022-10-04T05:37:22.290Z,101271.56
2022-10-04T05:40:01.914Z,101264.88
2022-10-04T05:42:38.529Z,101259.13
2022-10-04T05:45:17.272Z,101278.09
2022-10-04T05:47:47.831Z,101270.19
2022-10-04T05:50:20.065Z,101270.19
2022-10-04T05:52:50.967Z,101275.91
2022-10-04T05:55:26.173Z,101275.06
2022-10-04T05:58:19.758Z,101279.94
2022-10-04T06:01:05.086Z,101292.81
2022-10-04T06:03:46.547Z,101303.66
2022-10-04T06:06:21.368Z,101311.44
2022-10-04T06:09:09.004Z,101293.06
2022-10-04T06:11:54.214Z,101290.03
2022-10-04T06:14:47.696Z,101291.19
2022-10-04T06:17:49.940Z,101289.50
2022-10-04T06:20:50.583Z,101289.00
2022-10-04T06:23:21.085Z,101296.69
2022-10-04T06:25:51.944Z,101297.13
2022-10-04T06:28:25.077Z,101303.31
2022-10-04T06:31:25.391Z,101316.47
2022-10-04T06:34:19.216Z,101305.88
2022-10-04T06:37:19.878Z,101302.78
2022-10-04T06:40:02.349Z,101306.16
2022-10-04T06:42:48.624Z,101306.16
2022-10-04T06:45:51.905Z,101310.34
2022-10-04T06:48:39.794Z,101313.72
2022-10-04T06:51:17.088Z,101321.16
2022-10-04T06:53:58.329Z,101314.00
2022-10-04T06:56:35.122Z,101321.00
2022-10-04T06:59:23.066Z,101313.09
2022-10-04T07:01:53.092Z,101326.50
2022-10-04T07:04:45.001Z,101322.16
2022-10-04T07:07:27.037Z,101320.22
2022-10-04T07:10:02.558Z,101325.78
2022-10-04T07:12:32.917Z,101321.47
2022-10-04T07:15:04.878Z,101322.81
2022-10-04T07:17:40.910Z,101324.69
2022-10-04T07:20:21.372Z,101322.16
2022-10-04T07:22:56.417Z,101330.25
2022-10-04T07:25:30.493Z,101318.00
2022-10-04T07:28:22.142Z,101310.84
2022-10-04T07:30:56.740Z,101319.19
2022-10-04T07:33:28.725Z,101315.25
2022-10-04T07:36:04.529Z,101325.22
2022-10-04T07:38:35.168Z,101323.41
2022-10-04T07:41:09.290Z,101338.84
2022-10-04T07:43:49.095Z,101333.94
2022-10-04T07:46:24.726Z,101345.25
2022-10-04T07:48:52.505Z,101337.16
2022-10-04T07:51:30.871Z,101332.97
2022-10-04T07:54:03.622Z,101326.53
2022-10-04T07:56:42.115Z,101338.56
2022-10-04T07:59:24.115Z,101336.03
2022-10-04T08:02:01.916Z,101332.84
2022-10-04T08:04:40.551Z,101318.13
2022-10-04T08:07:18.683Z,101320.09
2022-10-04T08:10:02.552Z,101323.31
2022-10-04T08:12:44.242Z,101314.25
2022-10-04T08:15:34.746Z,101324.44
2022-10-04T08:18:11.972Z,101315.34
2022-10-04T08:20:49.135Z,101318.00
2022-10-04T08:23:55.667Z,101312.25
2022-10-04T08:26:46.178Z,101306.41
2022-10-04T08:29:44.326Z,101314.66
2022-10-04T08:32:24.184Z,101317.88
2022-10-04T08:35:17.063Z,101322.22
2022-10-04T08:38:00.098Z,101319.28
2022-10-04T08:40:52.967Z,101316.63
2022-10-04T08:43:44.320Z,101323.91
2022-10-04T08:46:36.417Z,101323.19
2022-10-04T08:49:47.132Z,101310.97
2022-10-04T08:52:38.302Z,101309.34
2022-10-04T08:55:41.050Z,101313.91
2022-10-04T08:58:34.122Z,101306.03
2022-10-04T09:01:20.350Z,101307.09
2022-10-04T09:04:23.784Z,101310.19
2022-10-04T09:07:04.791Z,101312.19
2022-10-04T09:09:57.675Z,101313.94
2022-10-04T09:12:59.428Z,101312.44
2022-10-04T09:15:44.363Z,101313.88
2022-10-04T09:18:45.611Z,101315.88
2022-10-04T09:21:26.865Z,101316.97
2022-10-04T09:24:48.044Z,101319.78
2022-10-04T09:27:55.727Z,101308.72
2022-10-04T09:30:25.386Z,101304.28
2022-10-04T09:33:32.538Z,101296.84
2022-10-04T09:36:22.907Z,101292.69
2022-10-04T09:39:29.523Z,101278.19
2022-10-04T09:42:33.561Z,101293.06
2022-10-04T09:45:44.933Z,101290.66
2022-10-04T09:48:30.201Z,101294.47
2022-10-04T09:51:31.852Z,101298.59
2022-10-04T09:54:19.860Z,101303.59
2022-10-04T09:57:03.359Z,101304.47
2022-10-04T09:59:58.874Z,101311.22
2022-10-04T10:02:56.505Z,101305.94
2022-10-04T10:05:46.746Z,101306.97
2022-10-04T10:08:28.236Z,101311.63
2022-10-04T10:11:34.105Z,101298.06
2022-10-04T10:14:26.973Z,101291.50
2022-10-04T10:17:05.933Z,101293.00
2022-10-04T10:20:03.458Z,101288.47
2022-10-04T10:22:53.930Z,101290.94
2022-10-04T10:25:40.874Z,101302.19
2022-10-04T10:28:34.226Z,101296.50
2022-10-04T10:31:18.689Z,101286.09
2022-10-04T10:34:07.665Z,101284.69
2022-10-04T10:36:49.943Z,101278.34
2022-10-04T10:39:54.099Z,101282.00
2022-10-04T10:42:47.726Z,101278.94
2022-10-04T10:45:29.273Z,101276.31
2022-10-04T10:48:01.890Z,101278.81
2022-10-04T10:51:00.604Z,101278.34
2022-10-04T10:53:57.166Z,101276.13
2022-10-04T10:56:37.897Z,101278.13
2022-10-04T10:59:27.250Z,101285.16
2022-10-04T11:02:10.262Z,101283.84
2022-10-04T11:04:58.349Z,101274.09
2022-10-04T11:07:51.663Z,101280.78
2022-10-04T11:10:59.592Z,101278.16
2022-10-04T11:13:50.665Z,101269.47
2022-10-04T11:16:47.502Z,101263.06
2022-10-04T11:19:52.724Z,101258.22
2022-10-04T11:23:02.111Z,101254.16
2022-10-04T11:25:57.450Z,101264.44
2022-10-04T11:28:37.085Z,101261.03
2022-10-04T11:31:40.515Z,101265.88
2022-10-04T11:34:27.036Z,101263.63
2022-10-04T11:37:08.091Z,101250.59
2022-10-04T11:40:04.199Z,101260.06
2022-10-04T11:42:49.275Z,101260.31
2022-10-04T11:45:44.763Z,101248.97
2022-10-04T11:48:26.606Z,101240.22
2022-10-04T11:51:19.425Z,101236.31
2022-10-04T11:54:14.818Z,101238.03
2022-10-04T11:56:56.613Z,101235.81
2022-10-04T11:59:39.225Z,101238.84
2022-10-04T12:02:35.716Z,101237.41
2022-10-04T12:05:24.412Z,101232.84
2022-10-04T12:08:10.850Z,101230.88
2022-10-04T12:10:40.862Z,101221.16
2022-10-04T12:13:37.964Z,101221.00
2022-10-04T12:16:38.314Z,101218.22
2022-10-04T12:19:40.519Z,101219.66
2022-10-04T12:22:30.085Z,101211.06
2022-10-04T12:25:28.529Z,101198.53
2022-10-04T12:28:25.604Z,101200.09
2022-10-04T12:31:12.243Z,101190.16
2022-10-04T12:33:50.188Z,101191.16
2022-10-04T12:36:34.097Z,101181.94
2022-10-04T12:39:31.516Z,101182.47
2022-10-04T12:42:12.555Z,101167.97
2022-10-04T12:44:53.414Z,101164.00
2022-10-04T12:47:41.695Z,101160.84
2022-10-04T12:50:22.197Z,101154.06
2022-10-04T12:52:55.535Z,101145.94
2022-10-04T12:55:47.317Z,101147.16
2022-10-04T12:58:22.970Z,101144.94
2022-10-04T13:00:58.855Z,101154.19
2022-10-04T13:03:41.161Z,101152.59
2022-10-04T13:06:15.942Z,101154.16
2022-10-04T13:08:56.500Z,101156.91
2022-10-04T13:11:47.202Z,101151.53
2022-10-04T13:14:46.797Z,101154.56
2022-10-04T13:17:34.511Z,101143.56
2022-10-04T13:20:21.034Z,101148.56
2022-10-04T13:22:57.644Z,101146.97
2022-10-04T13:25:53.428Z,101146.41
2022-10-04T13:28:30.846Z,101145.97
2022-10-04T13:31:06.820Z,101147.59
2022-10-04T13:33:44.458Z,101154.28
2022-10-04T13:36:19.244Z,101147.25
2022-10-04T13:39:29.683Z,101143.03
2022-10-04T13:42:17.615Z,101144.97
2022-10-04T13:45:07.428Z,101137.47
2022-10-04T13:47:48.944Z,101118.59
2022-10-04T13:50:32.097Z,101122.31
2022-10-04T13:53:30.557Z,101120.34
2022-10-04T13:56:21.792Z,101124.78
2022-10-04T13:58:58.488Z,101123.97
2022-10-04T14:01:50.195Z,101120.56
2022-10-04T14:04:34.774Z,101110.00
2022-10-04T14:07:35.179Z,101117.72
2022-10-04T14:10:18.344Z,101109.84
2022-10-04T14:13:11.985Z,101108.91
2022-10-04T14:15:59.240Z,101110.94
2022-10-04T14:18:57.937Z,101111.13
2022-10-04T14:21:54.662Z,101106.13
2022-10-04T14:24:58.338Z,101104.81
2022-10-04T14:27:57.095Z,101106.81
2022-10-04T14:30:30.704Z,101094.19
2022-10-04T14:33:40.300Z,101089.75
2022-10-04T14:36:40.880Z,101096.81
2022-10-04T14:39:35.805Z,101097.28
2022-10-04T14:42:35.010Z,101085.88
2022-10-04T14:45:25.126Z,101093.41
2022-10-04T14:48:19.629Z,101104.69
2022-10-04T14:50:59.351Z,101093.56
2022-10-04T14:53:37.262Z,101091.38
2022-10-04T14:56:28.418Z,101090.78
2022-10-04T14:59:09.184Z,101084.16
2022-10-04T15:01:45.574Z,101077.09
2022-10-04T15:04:28.945Z,101078.66
2022-10-04T15:07:00.233Z,101072.56
2022-10-04T15:09:52.167Z,101057.66
2022-10-04T15:12:58.558Z,101048.81
2022-10-04T15:15:36.434Z,101052.44
2022-10-04T15:18:10.768Z,101054.03
2022-10-04T15:20:51.536Z,101056.41
2022-10-04T15:23:32.043Z,101062.06
2022-10-04T15:26:13.795Z,101063.44
2022-10-04T15:29:01.623Z,101065.22
2022-10-04T15:31:36.246Z,101069.56
2022-10-04T15:34:12.684Z,101067.41
2022-10-04T15:37:04.199Z,101070.28
2022-10-04T15:39:58.174Z,101055.00
2022-10-04T15:42:30.770Z,101061.13
2022-10-04T15:45:26.949Z,101061.69
2022-10-04T15:48:06.311Z,101052.31
2022-10-04T15:50:38.364Z,101054.81
2022-10-04T15:53:30.504Z,101052.31
2022-10-04T15:56:30.391Z,101045.28
2022-10-04T15:59:32.296Z,101048.69
2022-10-04T16:02:36.773Z,101037.66
2022-10-04T16:05:15.574Z,101037.88
2022-10-04T16:08:01.473Z,101037.03
2022-10-04T16:10:48.172Z,101035.34
2022-10-04T16:13:37.946Z,101022.66
2022-10-04T16:16:41.010Z,101022.56
2022-10-04T16:19:17.796Z,101026.41
2022-10-04T16:21:51.869Z,101024.47
2022-10-04T16:24:51.315Z,101014.47
2022-10-04T16:27:46.013Z,101019.19
2022-10-04T16:30:28.147Z,101019.69
2022-10-04T16:33:13.681Z,101027.25
2022-10-04T16:35:44.450Z,101026.97
2022-10-04T16:38:25.458Z,101016.31
2022-10-04T16:41:08.717Z,101010.31
2022-10-04T16:43:41.087Z,101014.34
2022-10-04T16:46:23.057Z,101010.19
2022-10-04T16:48:57.125Z,101021.78
2022-10-04T16:51:55.053Z,101030.53
2022-10-04T16:54:42.877Z,101025.56
2022-10-04T16:57:22.856Z,101026.97
2022-10-04T16:59:54.103Z,101026.63
2022-10-04T17:02:38.025Z,101027.19
2022-10-04T17:05:47.189Z,101028.72
2022-10-04T17:08:30.020Z,101033.09
2022-10-04T17:11:39.167Z,101033.78
2022-10-04T17:14:33.632Z,101030.16
2022-10-04T17:17:07.338Z,101033.53
2022-10-04T17:19:42.385Z,101041.88
2022-10-04T17:22:25.191Z,101051.91
2022-10-04T17:25:02.414Z,101051.59
2022-10-04T17:27:47.194Z,101052.94
2022-10-04T17:30:21.775Z,101060.66
2022-10-04T17:33:21.787Z,101063.00
2022-10-04T17:36:30.969Z,101061.69
2022-10-04T17:39:12.343Z,101069.88
2022-10-04T17:41:58.071Z,101078.91
2022-10-04T17:44:57.647Z,101079.94
2022-10-04T17:47:49.850Z,101073.41
2022-10-04T17:50:41.034Z,101070.75
2022-10-04T17:53:37.454Z,101067.09
2022-10-04T17:56:11.541Z,101063.94
2022-10-04T17:58:45.605Z,101070.44
2022-10-04T18:01:18.655Z,101065.25
2022-10-04T18:03:52.372Z,101071.13
2022-10-04T18:06:29.898Z,101069.13
2022-10-04T18:09:02.924Z,101075.63
2022-10-04T18:11:43.547Z,101083.81
2022-10-04T18:14:20.662Z,101084.50
2022-10-04T18:16:52.493Z,101086.66
2022-10-04T18:19:35.961Z,101094.53
2022-10-04T18:22:12.503Z,101091.53
2022-10-04T18:24:40.258Z,101091.34
2022-10-04T18:27:19.460Z,101080.47
2022-10-04T18:30:03.988Z,101074.81
2022-10-04T18:32:34.915Z,101074.59
2022-10-04T18:35:21.743Z,101075.09
2022-10-04T18:37:50.734Z,101070.44
2022-10-04T18:40:20.700Z,101082.47
2022-10-04T18:42:55.251Z,101076.81
2022-10-04T18:45:26.483Z,101076.47
2022-10-04T18:47:55.757Z,101081.16
2022-10-04T18:50:30.338Z,101076.97
2022-10-04T18:53:32.403Z,101078.47
2022-10-04T18:56:01.827Z,101076.28
2022-10-04T18:58:58.998Z,101079.16
2022-10-04T19:01:58.035Z,101079.75
2022-10-04T19:04:36.887Z,101079.75
2022-10-04T19:07:10.223Z,101083.78
2022-10-04T19:09:56.678Z,101090.78
2022-10-04T19:12:29.424Z,101089.97
2022-10-04T19:15:08.793Z,101096.16
2022-10-04T19:17:43.143Z,101101.31
2022-10-04T19:20:18.968Z,101106.47
2022-10-04T19:22:54.509Z,101102.66
2022-10-04T19:25:32.586Z,101107.81
2022-10-04T19:28:05.517Z,101112.13
2022-10-04T19:30:48.273Z,101113.81
2022-10-04T19:33:20.409Z,101116.16
2022-10-04T19:36:05.883Z,101113.13
2022-10-04T19:38:52.353Z,101108.97
2022-10-04T19:41:33.629Z,101108.28
2022-10-04T19:44:12.295Z,101121.78
2022-10-04T19:46:45.147Z,101118.28
2022-10-04T19:49:21.542Z,101125.81
2022-10-04T19:51:54.459Z,101124.97
2022-10-04T19:54:29.314Z,101121.59
2022-10-04T19:56:59.026Z,101119.94
2022-10-04T19:59:36.452Z,101127.09
2022-10-04T20:02:10.427Z,101123.41
2022-10-04T20:04:43.516Z,101127.75
2022-10-04T20:07:22.403Z,101129.41
2022-10-04T20:10:07.393Z,101129.47
2022-10-04T20:12:37.039Z,101126.94
2022-10-04T20:15:27.524Z,101136.00
2022-10-04T20:17:58.094Z,101138.34
2022-10-04T20:21:03.358Z,101129.09
2022-10-04T20:23:50.573Z,101139.19
2022-10-04T20:26:53.812Z,101131.41
2022-10-04T20:30:04.541Z,101136.84
2022-10-04T20:32:59.404Z,101146.38
2022-10-04T20:36:08.265Z,101136.91
2022-10-04T20:38:59.396Z,101129.59
2022-10-04T20:42:24.012Z,101133.97
2022-10-04T20:44:57.335Z,101130.41
2022-10-04T20:47:40.229Z,101143.38
2022-10-04T20:50:16.440Z,101145.53
2022-10-04T20:52:47.212Z,101147.28
2022-10-04T20:55:27.120Z,101148.88
2022-10-04T20:57:57.080Z,101145.59
2022-10-04T21:00:26.885Z,101152.78
2022-10-04T21:03:15.458Z,101154.09
2022-10-04T21:05:48.738Z,101152.13
2022-10-04T21:08:25.060Z,101159.88
2022-10-04T21:11:21.354Z,101157.88
2022-10-04T21:13:54.541Z,101159.25
2022-10-04T21:16:39.348Z,101157.78
2022-10-04T21:19:44.084Z,101155.94
2022-10-04T21:22:34.103Z,101156.66
2022-10-04T21:25:03.117Z,101154.75
2022-10-04T21:27:32.638Z,101160.63
2022-10-04T21:30:01.568Z,101153.16
2022-10-04T21:32:34.327Z,101138.84
2022-10-04T21:35:03.517Z,101133.75
2022-10-04T21:37:32.832Z,101120.81
2022-10-04T21:40:00.449Z,101131.75
2022-10-04T21:42:28.054Z,101130.22
2022-10-04T21:44:55.629Z,101126.72
2022-10-04T21:47:23.288Z,101135.91
2022-10-04T21:49:51.762Z,101128.88
2022-10-04T21:52:19.407Z,101135.06
2022-10-04T21:54:48.436Z,101121.94
2022-10-04T21:57:16.023Z,101121.78
2022-10-04T21:59:43.624Z,101110.13
2022-10-04T22:02:11.269Z,101118.56
2022-10-04T22:04:40.076Z,101121.56
2022-10-04T22:07:07.659Z,101124.38
2022-10-04T22:09:36.004Z,101131.41
2022-10-04T22:12:05.245Z,101133.38
2022-10-04T22:14:32.868Z,101132.53
2022-10-04T22:17:00.602Z,101130.50
2022-10-04T22:19:28.201Z,101118.38
2022-10-04T22:21:55.819Z,101122.72
2022-10-04T22:24:23.688Z,101117.91
2022-10-04T22:26:51.503Z,101111.75
2022-10-04T22:29:20.778Z,101118.31
2022-10-04T22:31:51.349Z,101113.59
2022-10-04T22:34:22.529Z,101114.56
2022-10-04T22:36:51.944Z,101112.75
2022-10-04T22:39:20.886Z,101108.25
2022-10-04T22:41:53.176Z,101106.72
2022-10-04T22:44:24.339Z,101105.13
2022-10-04T22:46:54.177Z,101108.34
2022-10-04T22:49:24.670Z,101100.69
2022-10-04T22:51:54.623Z,101098.88
2022-10-04T22:54:25.170Z,101100.34
2022-10-04T22:56:54.277Z,101089.03
2022-10-04T22:59:27.971Z,101094.66
2022-10-04T23:01:55.679Z,101087.59
2022-10-04T23:04:25.832Z,101088.38
2022-10-04T23:06:53.981Z,101090.66
2022-10-04T23:09:22.025Z,101081.91
2022-10-04T23:11:49.954Z,101088.38
2022-10-04T23:14:17.547Z,101079.47
2022-10-04T23:16:47.347Z,101073.22
2022-10-04T23:19:18.669Z,101071.47
2022-10-04T23:21:47.534Z,101075.75
2022-10-04T23:24:17.418Z,101086.09
2022-10-04T23:26:48.736Z,101087.53
2022-10-04T23:29:21.999Z,101087.78
2022-10-04T23:31:52.625Z,101082.19
2022-10-04T23:34:24.846Z,101089.88
2022-10-04T23:36:52.734Z,101093.19
2022-10-04T23:39:25.845Z,101088.00
2022-10-04T23:41:54.972Z,101090.19
2022-10-04T23:44:24.727Z,101095.53
2022-10-04T23:46:53.641Z,101103.31
2022-10-04T23:49:22.574Z,101105.97
2022-10-04T23:51:55.805Z,101108.63
2022-10-04T23:54:24.473Z,101098.72
2022-10-04T23:56:52.459Z,101103.84
2022-10-04T23:59:24.606Z,101104.28
